• Join FlightAware (Why Join?)
  • Login
  • US Flag 
12:35PM EDT


 

Airport Tracker/Info


-or-


 

Live Flight TrackerFlight Track Log ✈ ADR727 ✈ 29-Jul-2013 ✈ LATI / TIA - LJLJ / LJU

Flight Track Log - Related Links

Times and Time Zones

All times are in EDT time to prevent confusion due to time zone crossing. See the ADR727 flight status page for this flight to view local times or setup timezone preferences in your user account.

Time Position Orientation Groundspeed Altitude Reporting Facility
EDT Latitude Longitude Course Direction KTS MPH feet Rate Location/Type
11:26PM 43.1264 17.9721 324° Northwest  Level Estimated
11:27PM 43.2072 17.8864 322° Northwest  Level Estimated
11:28PM 43.2880 17.8006 322° Northwest  Level Estimated
11:29PM 43.3687 17.7144 322° Northwest  Level Estimated
11:30PM 43.4493 17.6281 322° Northwest  Level Estimated
11:31PM 43.5299 17.5415 322° Northwest  Level Estimated
11:32PM 43.6104 17.4547 322° Northwest  Level Estimated
11:33PM 43.6909 17.3676 322° Northwest  Level Estimated
11:34PM 43.7713 17.2803 322° Northwest  Level Estimated
11:35PM 43.8516 17.1928 322° Northwest  Level Estimated
11:36PM 43.9318 17.1050 322° Northwest  Level Estimated
11:37PM 44.0120 17.0170 322° Northwest  Level Estimated
11:38PM 44.0921 16.9288 322° Northwest  Level Estimated
11:39PM 44.1721 16.8403 322° Northwest  Level Estimated
11:40PM 44.2521 16.7516 322° Northwest  Level Estimated
11:41PM 44.3320 16.6627 321° Northwest  Level Estimated
11:42PM 44.4118 16.5735 321° Northwest  Level Estimated
11:43PM 44.4916 16.4841 321° Northwest  Level Estimated
11:44PM 44.5713 16.3944 321° Northwest  Level Estimated
11:45PM 44.6509 16.3044 321° Northwest  Level Estimated
11:46PM 44.7304 16.2143 321° Northwest  Level Estimated
11:47PM 44.8099 16.1238 321° Northwest  Level Estimated
11:48PM 44.8893 16.0332 321° Northwest  Level Estimated
11:49PM 44.9687 15.9423 321° Northwest  Level Estimated
11:50PM 45.0479 15.8511 321° Northwest  Level Estimated
11:51PM 45.1271 15.7597 321° Northwest  Level Estimated
11:52PM 45.2062 15.6680 321° Northwest  Level Estimated
11:53PM 45.2853 15.5760 321° Northwest  Level Estimated
11:54PM 45.3643 15.4838 321° Northwest  Level Estimated
11:55PM 45.4432 15.3914 321° Northwest  Level Estimated
11:56PM 45.5220 15.2987 321° Northwest  Level Estimated
11:57PM 45.6007 15.2057 320° Northwest  Level Estimated
11:58PM 45.6794 15.1125 320° Northwest  Level Estimated
11:59PM 45.7580 15.0190 320° Northwest  Level Estimated
12:00AM 45.8365 14.9252 320° Northwest  Level Estimated
12:01AM 45.9150 14.8312 320° Northwest  Level Estimated
12:02AM 45.9933 14.7369 320° Northwest  Level Estimated
12:03AM 46.0716 14.6423 320° Northwest  Level Estimated
12:04AM 46.1498 14.5475 320° Northwest  Level Estimated
12:05AM 46.2237 14.4576 320° Northwest  Level Estimated
12:06AM 46.2237 14.4576 170° South  Level Estimated
12:07AM 46.2237 14.4576 170° South  Level Estimated
12:08AM 46.2237 14.4576 170° South  Level Estimated
12:09AM 46.2237 14.4576 170° South  Level Estimated
12:10AM 46.2237 14.4576 170° South  Level Estimated
12:11AM 46.2237 14.4576 170° South  Level Estimated
12:12AM 46.2237 14.4576 170° South  Level Estimated
12:13AM 46.2237 14.4576 170° South  Level Estimated
12:14AM 46.2237 14.4576 170° South  Level Estimated
12:15AM 46.2237 14.4576 170° South  Level Estimated
12:16AM 46.2237 14.4576 170° South  Level Estimated
12:17AM 46.2237 14.4576 170° South  Level Estimated
12:18AM 46.2237 14.4576 170° South  Level Estimated
12:19AM 46.2237 14.4576 170° South  Level Estimated
12:20AM 46.2237 14.4576 170° South  Level Estimated
12:21AM 46.2237 14.4576 170° South  Level Estimated